createdAt,value
2016-11-16T00:00:29.938Z,1013.92
2016-11-16T00:01:29.873Z,1013.86
2016-11-16T00:02:29.810Z,1013.9
2016-11-16T00:03:29.752Z,1013.9
2016-11-16T00:04:29.687Z,1013.86
2016-11-16T00:05:29.623Z,1013.89
2016-11-16T00:06:29.559Z,1013.86
2016-11-16T00:07:29.499Z,1013.82
2016-11-16T00:08:29.434Z,1013.82
2016-11-16T00:09:29.371Z,1013.8
2016-11-16T00:10:29.308Z,1013.81
2016-11-16T00:11:29.246Z,1013.75
2016-11-16T00:12:29.184Z,1013.77
2016-11-16T00:13:29.121Z,1013.74
2016-11-16T00:14:29.058Z,1013.76
2016-11-16T00:15:28.996Z,1013.76
2016-11-16T00:16:28.952Z,1013.81
2016-11-16T00:17:28.870Z,1013.81
2016-11-16T00:18:28.807Z,1013.77
2016-11-16T00:19:28.743Z,1013.76
2016-11-16T00:20:28.682Z,1013.77
2016-11-16T00:21:28.617Z,1013.78
2016-11-16T00:22:28.556Z,1013.76
2016-11-16T00:23:28.493Z,1013.74
2016-11-16T00:24:28.429Z,1013.73
2016-11-16T00:25:28.367Z,1013.75
2016-11-16T00:26:28.305Z,1013.75
2016-11-16T00:27:28.239Z,1013.78
2016-11-16T00:28:28.178Z,1013.79
2016-11-16T00:29:28.114Z,1013.76
2016-11-16T00:30:28.050Z,1013.72
2016-11-16T00:31:27.990Z,1013.69
2016-11-16T00:32:27.926Z,1013.69
2016-11-16T00:33:27.862Z,1013.71
2016-11-16T00:34:27.800Z,1013.71
2016-11-16T00:35:27.737Z,1013.69
2016-11-16T00:36:27.675Z,1013.72
2016-11-16T00:37:27.611Z,1013.75
2016-11-16T00:38:27.549Z,1013.76
2016-11-16T00:39:27.485Z,1013.77
2016-11-16T00:40:27.422Z,1013.77
2016-11-16T00:41:27.359Z,1013.72
2016-11-16T00:42:27.304Z,1013.67
2016-11-16T00:43:27.233Z,1013.66
2016-11-16T00:44:27.171Z,1013.65
2016-11-16T00:45:27.109Z,1013.58
2016-11-16T00:46:27.047Z,1013.56
2016-11-16T00:47:26.982Z,1013.58
2016-11-16T00:48:26.919Z,1013.57
2016-11-16T00:49:26.856Z,1013.6
2016-11-16T00:50:26.797Z,1013.6
2016-11-16T00:51:26.732Z,1013.6
2016-11-16T00:52:26.667Z,1013.62
2016-11-16T00:53:26.607Z,1013.64
2016-11-16T00:54:26.542Z,1013.63
2016-11-16T00:55:26.479Z,1013.6
2016-11-16T00:56:26.417Z,1013.6
2016-11-16T00:57:26.353Z,1013.62
2016-11-16T00:58:26.295Z,1013.6
2016-11-16T00:59:26.228Z,1013.62
2016-11-16T01:00:26.164Z,1013.62
2016-11-16T01:01:26.104Z,1013.67
2016-11-16T01:02:26.039Z,1013.68
2016-11-16T01:03:25.975Z,1013.67
2016-11-16T01:04:25.913Z,1013.65
2016-11-16T01:05:25.850Z,1013.69
2016-11-16T01:06:25.789Z,1013.63
2016-11-16T01:07:25.724Z,1013.64
2016-11-16T01:08:25.661Z,1013.64
2016-11-16T01:09:25.598Z,1013.63
2016-11-16T01:10:25.537Z,1013.58
2016-11-16T01:11:25.473Z,1013.6
2016-11-16T01:12:25.412Z,1013.59
2016-11-16T01:13:25.358Z,1013.64
2016-11-16T01:14:25.285Z,1013.61
2016-11-16T01:15:25.221Z,1013.62
2016-11-16T01:16:25.160Z,1013.59
2016-11-16T01:17:25.096Z,1013.61
2016-11-16T01:18:25.032Z,1013.58
2016-11-16T01:19:24.969Z,1013.58
2016-11-16T01:20:24.909Z,1013.55
2016-11-16T01:21:24.845Z,1013.53
2016-11-16T01:22:24.781Z,1013.55
2016-11-16T01:23:24.718Z,1013.53
2016-11-16T01:24:24.657Z,1013.55
2016-11-16T01:25:24.591Z,1013.57
2016-11-16T01:26:24.531Z,1013.5
2016-11-16T01:27:24.467Z,1013.5
2016-11-16T01:28:24.403Z,1013.48
2016-11-16T01:29:24.339Z,1013.51
2016-11-16T01:30:24.281Z,1013.53
2016-11-16T01:31:24.216Z,1013.49
2016-11-16T01:32:24.152Z,1013.51
2016-11-16T01:33:24.091Z,1013.55
2016-11-16T01:34:24.026Z,1013.55
2016-11-16T01:35:23.964Z,1013.51
2016-11-16T01:36:23.899Z,1013.51
2016-11-16T01:37:23.837Z,1013.47
2016-11-16T01:38:23.774Z,1013.42
2016-11-16T01:39:23.711Z,1013.5
2016-11-16T01:40:23.649Z,1013.48
2016-11-16T01:41:23.586Z,1013.44
2016-11-16T01:42:23.522Z,1013.48
2016-11-16T01:43:23.460Z,1013.46
2016-11-16T01:44:23.397Z,1013.44
2016-11-16T01:45:23.334Z,1013.45
2016-11-16T01:46:23.271Z,1013.46
2016-11-16T01:47:23.209Z,1013.49
2016-11-16T01:48:23.145Z,1013.49
2016-11-16T01:49:23.083Z,1013.5
2016-11-16T01:50:23.020Z,1013.54
2016-11-16T01:51:22.957Z,1013.47
2016-11-16T01:52:22.894Z,1013.44
2016-11-16T01:53:22.832Z,1013.48
2016-11-16T01:54:22.771Z,1013.48
2016-11-16T01:55:22.707Z,1013.42
2016-11-16T01:56:22.643Z,1013.45
2016-11-16T01:57:22.582Z,1013.45
2016-11-16T01:58:22.515Z,1013.51
2016-11-16T01:59:22.453Z,1013.45
2016-11-16T02:00:22.391Z,1013.49
2016-11-16T02:01:22.328Z,1013.53
2016-11-16T02:02:22.270Z,1013.48
2016-11-16T02:03:22.203Z,1013.5
2016-11-16T02:04:22.140Z,1013.49
2016-11-16T02:05:22.076Z,1013.5
2016-11-16T02:06:22.014Z,1013.5
2016-11-16T02:07:22.155Z,1013.54
2016-11-16T02:08:21.892Z,1013.52
2016-11-16T02:09:21.824Z,1013.51
2016-11-16T02:10:21.761Z,1013.43
2016-11-16T02:11:21.700Z,1013.46
2016-11-16T02:12:21.636Z,1013.4
2016-11-16T02:13:21.573Z,1013.41
2016-11-16T02:14:21.510Z,1013.41
2016-11-16T02:15:21.448Z,1013.38
2016-11-16T02:16:21.385Z,1013.36
2016-11-16T02:17:21.323Z,1013.33
2016-11-16T02:18:21.264Z,1013.37
2016-11-16T02:19:21.195Z,1013.33
2016-11-16T02:20:21.132Z,1013.29
2016-11-16T02:21:21.070Z,1013.31
2016-11-16T02:22:21.008Z,1013.37
2016-11-16T02:23:20.944Z,1013.34
2016-11-16T02:24:20.880Z,1013.34
2016-11-16T02:25:20.820Z,1013.35
2016-11-16T02:26:20.766Z,1013.33
2016-11-16T02:27:20.694Z,1013.33
2016-11-16T02:28:20.629Z,1013.31
2016-11-16T02:29:20.568Z,1013.26
2016-11-16T02:30:20.504Z,1013.27
2016-11-16T02:31:20.440Z,1013.23
2016-11-16T02:32:20.377Z,1013.2
2016-11-16T02:33:20.315Z,1013.2
2016-11-16T02:34:20.251Z,1013.24
2016-11-16T02:35:20.190Z,1013.22
2016-11-16T02:36:20.127Z,1013.23
2016-11-16T02:37:20.062Z,1013.32
2016-11-16T02:38:20.001Z,1013.26
2016-11-16T02:39:19.936Z,1013.27
2016-11-16T02:40:19.876Z,1013.28
2016-11-16T02:41:19.811Z,1013.28
2016-11-16T02:42:19.747Z,1013.25
2016-11-16T02:43:19.684Z,1013.21
2016-11-16T02:44:19.622Z,1013.2
2016-11-16T02:45:19.559Z,1013.25
2016-11-16T02:46:19.495Z,1013.24
2016-11-16T02:47:19.431Z,1013.21
2016-11-16T02:48:19.369Z,1013.18
2016-11-16T02:49:19.305Z,1013.19
2016-11-16T02:50:19.246Z,1013.16
2016-11-16T02:51:19.179Z,1013.11
2016-11-16T02:52:19.116Z,1013.13
2016-11-16T02:53:19.052Z,1013.11
2016-11-16T02:54:18.989Z,1013.14
2016-11-16T02:55:18.927Z,1013.09
2016-11-16T02:56:18.864Z,1013.12
2016-11-16T02:57:18.800Z,1013.1
2016-11-16T02:58:18.737Z,1013.09
2016-11-16T02:59:18.678Z,1013.15
2016-11-16T03:00:18.610Z,1013.16
2016-11-16T03:01:18.548Z,1013.15
2016-11-16T03:02:18.486Z,1013.11
2016-11-16T03:03:18.421Z,1013.14
2016-11-16T03:04:18.357Z,1013.16
2016-11-16T03:05:18.295Z,1013.14
2016-11-16T03:06:18.232Z,1013.11
2016-11-16T03:07:18.168Z,1013.11
2016-11-16T03:08:18.111Z,1013.08
2016-11-16T03:09:18.042Z,1013.06
2016-11-16T03:10:17.978Z,1013.09
2016-11-16T03:11:17.914Z,1013.08
2016-11-16T03:12:17.851Z,1013.04
2016-11-16T03:13:17.789Z,1013.09
2016-11-16T03:14:17.725Z,1013.05
2016-11-16T03:15:17.661Z,1013.05
2016-11-16T03:16:17.601Z,1013.04
2016-11-16T03:17:17.536Z,1013.02
2016-11-16T03:18:17.471Z,1013.02
2016-11-16T03:19:17.412Z,1013.02
2016-11-16T03:20:17.347Z,1012.96
2016-11-16T03:21:17.282Z,1013
2016-11-16T03:22:17.222Z,1013.01
2016-11-16T03:23:17.156Z,1012.97
2016-11-16T03:24:17.095Z,1012.99
2016-11-16T03:25:17.032Z,1013.02
2016-11-16T03:26:16.966Z,1013.02
2016-11-16T03:27:16.905Z,1013.04
2016-11-16T03:28:16.842Z,1013.04
2016-11-16T03:29:16.783Z,1013.1
2016-11-16T03:30:16.714Z,1013.03
2016-11-16T03:31:16.652Z,1013.07
2016-11-16T03:32:16.591Z,1013.03
2016-11-16T03:33:16.526Z,1013.1
2016-11-16T03:34:16.462Z,1013.11
2016-11-16T03:35:16.400Z,1013.07
2016-11-16T03:36:16.339Z,1013.1
2016-11-16T03:37:16.274Z,1013.13
2016-11-16T03:38:16.210Z,1013.14
2016-11-16T03:39:16.148Z,1013.08
2016-11-16T03:40:16.086Z,1013.15
2016-11-16T03:41:16.034Z,1013.14
2016-11-16T03:42:15.959Z,1013.13
2016-11-16T03:43:15.897Z,1013.15
2016-11-16T03:44:15.831Z,1013.19
2016-11-16T03:45:15.768Z,1013.2
2016-11-16T03:46:15.706Z,1013.19
2016-11-16T03:47:15.646Z,1013.17
2016-11-16T03:48:15.579Z,1013.16
2016-11-16T03:49:15.517Z,1013.12
2016-11-16T03:50:15.487Z,1013.1
2016-11-16T03:51:15.390Z,1013.14
2016-11-16T03:52:15.368Z,1013.11
2016-11-16T03:53:15.265Z,1013.13
2016-11-16T03:54:15.222Z,1013.15
2016-11-16T03:55:15.155Z,1013.19
2016-11-16T03:56:15.076Z,1013.21
2016-11-16T03:57:15.102Z,1013.18
2016-11-16T03:58:14.949Z,1013.22
2016-11-16T03:59:14.926Z,1013.25
2016-11-16T04:00:14.845Z,1013.29
2016-11-16T04:01:14.760Z,1013.24
2016-11-16T04:02:14.700Z,1013.27
2016-11-16T04:03:14.644Z,1013.25
2016-11-16T04:04:14.583Z,1013.21
2016-11-16T04:05:14.510Z,1013.24
2016-11-16T04:06:14.445Z,1013.22
2016-11-16T04:07:14.386Z,1013.27
2016-11-16T04:08:14.320Z,1013.29
2016-11-16T04:09:14.258Z,1013.28
2016-11-16T04:10:14.194Z,1013.3
2016-11-16T04:11:14.130Z,1013.34
2016-11-16T04:12:14.068Z,1013.34
2016-11-16T04:13:14.005Z,1013.35
2016-11-16T04:14:13.940Z,1013.36
2016-11-16T04:15:13.878Z,1013.34
2016-11-16T04:16:13.816Z,1013.33
2016-11-16T04:17:13.752Z,1013.32
2016-11-16T04:18:13.689Z,1013.32
2016-11-16T04:19:13.627Z,1013.32
2016-11-16T04:20:13.563Z,1013.28
2016-11-16T04:21:13.499Z,1013.29
2016-11-16T04:22:13.437Z,1013.28
2016-11-16T04:23:13.374Z,1013.33
2016-11-16T04:24:13.312Z,1013.38
2016-11-16T04:25:13.248Z,1013.35
2016-11-16T04:26:13.189Z,1013.3
2016-11-16T04:27:13.122Z,1013.36
2016-11-16T04:28:13.058Z,1013.35
2016-11-16T04:29:12.996Z,1013.37
2016-11-16T04:30:12.933Z,1013.37
2016-11-16T04:31:12.869Z,1013.33
2016-11-16T04:32:12.809Z,1013.37
2016-11-16T04:33:12.744Z,1013.35
2016-11-16T04:34:12.682Z,1013.31
2016-11-16T04:35:12.617Z,1013.34
2016-11-16T04:36:12.553Z,1013.31
2016-11-16T04:37:12.491Z,1013.33
2016-11-16T04:38:12.427Z,1013.32
2016-11-16T04:39:12.365Z,1013.3
2016-11-16T04:40:12.301Z,1013.28
2016-11-16T04:41:12.238Z,1013.28
2016-11-16T04:42:12.176Z,1013.25
2016-11-16T04:43:12.113Z,1013.22
2016-11-16T04:44:12.048Z,1013.22
2016-11-16T04:45:11.986Z,1013.21
2016-11-16T04:46:11.922Z,1013.19
2016-11-16T04:47:11.858Z,1013.18
2016-11-16T04:48:11.797Z,1013.2
2016-11-16T04:49:11.734Z,1013.11
2016-11-16T04:50:11.670Z,1013.14
2016-11-16T04:51:11.608Z,1013.1
2016-11-16T04:52:11.542Z,1013.11
2016-11-16T04:53:11.480Z,1013.11
2016-11-16T04:54:11.419Z,1013.13
2016-11-16T04:55:11.355Z,1013.08
2016-11-16T04:56:11.299Z,1013.09
2016-11-16T04:57:11.228Z,1013.05
2016-11-16T04:58:11.165Z,1013.1
2016-11-16T04:59:11.101Z,1013.07
2016-11-16T05:00:11.039Z,1013.07
2016-11-16T05:01:10.980Z,1013.06
2016-11-16T05:02:10.912Z,1013.03
2016-11-16T05:03:10.848Z,1013.02
2016-11-16T05:04:10.784Z,1013
2016-11-16T05:05:10.721Z,1012.99
2016-11-16T05:06:10.660Z,1013
2016-11-16T05:07:10.595Z,1013
2016-11-16T05:08:10.531Z,1012.99
2016-11-16T05:09:10.470Z,1012.99
2016-11-16T05:10:10.405Z,1012.97
2016-11-16T05:11:10.342Z,1012.95
2016-11-16T05:12:10.278Z,1012.97
2016-11-16T05:13:10.215Z,1012.94
2016-11-16T05:14:10.153Z,1013.01
2016-11-16T05:15:10.090Z,1012.98
2016-11-16T05:16:10.024Z,1012.95
2016-11-16T05:17:09.961Z,1012.97
2016-11-16T05:18:09.899Z,1012.92
2016-11-16T05:19:09.835Z,1012.92
2016-11-16T05:20:09.771Z,1012.92
2016-11-16T05:21:09.709Z,1012.89
2016-11-16T05:22:09.647Z,1012.84
2016-11-16T05:23:09.582Z,1012.86
2016-11-16T05:24:09.520Z,1012.86
2016-11-16T05:25:09.455Z,1012.88
2016-11-16T05:26:09.391Z,1012.88
2016-11-16T05:27:09.328Z,1012.85
2016-11-16T05:28:09.265Z,1012.79
2016-11-16T05:29:09.203Z,1012.81
2016-11-16T05:30:09.142Z,1012.79
2016-11-16T05:31:09.077Z,1012.81
2016-11-16T05:32:09.014Z,1012.85
2016-11-16T05:33:08.950Z,1012.85
2016-11-16T05:34:08.890Z,1012.84
2016-11-16T05:35:08.832Z,1012.85
2016-11-16T05:36:08.761Z,1012.85
2016-11-16T05:37:08.697Z,1012.86
2016-11-16T05:38:08.636Z,1012.84
2016-11-16T05:39:08.573Z,1012.83
2016-11-16T05:40:08.509Z,1012.87
2016-11-16T05:41:08.444Z,1012.86
2016-11-16T05:42:08.395Z,1012.89
2016-11-16T05:43:08.321Z,1012.85
2016-11-16T05:44:08.256Z,1012.88
2016-11-16T05:45:08.195Z,1012.86
2016-11-16T05:46:08.131Z,1012.86
2016-11-16T05:47:08.067Z,1012.91
2016-11-16T05:48:08.004Z,1012.9
2016-11-16T05:49:07.940Z,1012.89
2016-11-16T05:50:07.880Z,1012.91
2016-11-16T05:51:07.817Z,1012.9
2016-11-16T05:52:07.752Z,1012.91
2016-11-16T05:53:07.690Z,1012.87
2016-11-16T05:54:07.628Z,1012.86
2016-11-16T05:55:07.564Z,1012.89
2016-11-16T05:56:07.501Z,1012.87
2016-11-16T05:57:07.437Z,1012.88
2016-11-16T05:58:07.375Z,1012.84
2016-11-16T05:59:07.311Z,1012.88
2016-11-16T06:00:07.253Z,1012.85
2016-11-16T06:01:07.185Z,1012.85
2016-11-16T06:02:07.125Z,1012.83
2016-11-16T06:03:07.059Z,1012.85
2016-11-16T06:04:06.997Z,1012.83
2016-11-16T06:05:06.935Z,1012.84
2016-11-16T06:06:06.871Z,1012.83
2016-11-16T06:07:06.834Z,1012.84
2016-11-16T06:08:06.745Z,1012.83
2016-11-16T06:09:06.682Z,1012.83
2016-11-16T06:10:06.619Z,1012.85
2016-11-16T06:11:06.557Z,1012.84
2016-11-16T06:12:06.493Z,1012.83
2016-11-16T06:13:06.431Z,1012.84
2016-11-16T06:14:06.367Z,1012.87
2016-11-16T06:15:06.304Z,1012.84
2016-11-16T06:16:06.242Z,1012.85
2016-11-16T06:17:06.180Z,1012.83
2016-11-16T06:18:06.117Z,1012.84
2016-11-16T06:19:06.054Z,1012.84
2016-11-16T06:20:05.990Z,1012.81
2016-11-16T06:21:05.929Z,1012.86
2016-11-16T06:22:05.864Z,1012.86
2016-11-16T06:23:05.804Z,1012.87
2016-11-16T06:24:05.739Z,1012.85
2016-11-16T06:25:05.677Z,1012.88
2016-11-16T06:26:05.616Z,1012.88
2016-11-16T06:27:05.551Z,1012.86
2016-11-16T06:28:05.491Z,1012.87
2016-11-16T06:29:05.427Z,1012.87
2016-11-16T06:30:05.363Z,1012.86
2016-11-16T06:31:05.300Z,1012.85
2016-11-16T06:32:05.237Z,1012.86
2016-11-16T06:33:05.174Z,1012.83
2016-11-16T06:34:05.111Z,1012.84
2016-11-16T06:35:05.049Z,1012.85
2016-11-16T06:36:04.989Z,1012.81
2016-11-16T06:37:04.925Z,1012.82
2016-11-16T06:38:04.862Z,1012.86
2016-11-16T06:39:04.797Z,1012.83
2016-11-16T06:40:04.735Z,1012.8
2016-11-16T06:41:04.672Z,1012.83
2016-11-16T06:42:04.609Z,1012.78
2016-11-16T06:43:04.548Z,1012.78
2016-11-16T06:44:04.483Z,1012.73
2016-11-16T06:45:04.421Z,1012.72
2016-11-16T06:46:04.358Z,1012.67
2016-11-16T06:47:04.296Z,1012.69
2016-11-16T06:48:04.233Z,1012.69
2016-11-16T06:49:04.170Z,1012.66
2016-11-16T06:50:04.106Z,1012.66
2016-11-16T06:51:04.043Z,1012.65
2016-11-16T06:52:03.981Z,1012.65
2016-11-16T06:53:03.923Z,1012.63
2016-11-16T06:54:03.854Z,1012.56
2016-11-16T06:55:03.792Z,1012.56
2016-11-16T06:56:03.731Z,1012.57
2016-11-16T06:57:03.671Z,1012.54
2016-11-16T06:58:03.604Z,1012.52
2016-11-16T06:59:03.543Z,1012.52
2016-11-16T07:00:03.479Z,1012.53
2016-11-16T07:01:03.415Z,1012.49
2016-11-16T07:02:03.354Z,1012.45
2016-11-16T07:03:03.290Z,1012.45
2016-11-16T07:04:03.229Z,1012.44
2016-11-16T07:05:03.163Z,1012.47
2016-11-16T07:06:03.104Z,1012.49
2016-11-16T07:07:03.041Z,1012.47
2016-11-16T07:08:02.978Z,1012.49
2016-11-16T07:09:02.914Z,1012.47
2016-11-16T07:10:02.853Z,1012.48
2016-11-16T07:11:02.788Z,1012.45
2016-11-16T07:12:02.724Z,1012.49
2016-11-16T07:13:02.662Z,1012.48
2016-11-16T07:14:02.600Z,1012.44
2016-11-16T07:15:02.538Z,1012.43
2016-11-16T07:16:02.474Z,1012.41
2016-11-16T07:17:02.411Z,1012.44
2016-11-16T07:18:02.349Z,1012.44
2016-11-16T07:19:02.290Z,1012.43
2016-11-16T07:20:02.222Z,1012.41
2016-11-16T07:21:02.162Z,1012.44
2016-11-16T07:22:02.098Z,1012.43
2016-11-16T07:23:02.051Z,1012.46
2016-11-16T07:24:01.974Z,1012.41
2016-11-16T07:25:01.915Z,1012.38
2016-11-16T07:26:01.848Z,1012.38
2016-11-16T07:27:01.783Z,1012.42
2016-11-16T07:28:01.722Z,1012.44
2016-11-16T07:29:01.662Z,1012.4
2016-11-16T07:30:01.595Z,1012.4
2016-11-16T07:31:01.536Z,1012.35
2016-11-16T07:32:01.471Z,1012.29
2016-11-16T07:33:01.408Z,1012.28
2016-11-16T07:34:01.344Z,1012.26
2016-11-16T07:35:01.290Z,1012.29
2016-11-16T07:36:01.236Z,1012.3
2016-11-16T07:37:01.162Z,1012.28
2016-11-16T07:38:01.098Z,1012.28
2016-11-16T07:39:01.033Z,1012.28
2016-11-16T07:40:00.978Z,1012.28
2016-11-16T07:41:00.907Z,1012.22
2016-11-16T07:42:00.842Z,1012.19
2016-11-16T07:43:00.784Z,1012.17
2016-11-16T07:44:00.721Z,1012.1
2016-11-16T07:45:00.666Z,1012.11
2016-11-16T07:46:00.592Z,1012.13
2016-11-16T07:47:00.530Z,1012.04
2016-11-16T07:48:00.473Z,1012.06
2016-11-16T07:49:00.403Z,1012.03
2016-11-16T07:50:00.344Z,1012.03
2016-11-16T07:51:00.282Z,1012.01
2016-11-16T07:52:00.217Z,1011.98
2016-11-16T07:53:00.164Z,1011.98
2016-11-16T07:54:00.091Z,1011.97
2016-11-16T07:55:00.045Z,1011.89
2016-11-16T07:55:59.974Z,1011.9
2016-11-16T07:56:59.910Z,1011.83
2016-11-16T07:57:59.853Z,1011.83
2016-11-16T07:58:59.778Z,1011.81
2016-11-16T07:59:59.713Z,1011.8
2016-11-16T08:00:59.653Z,1011.75
2016-11-16T08:01:59.587Z,1011.79
2016-11-16T08:02:59.569Z,1011.8
2016-11-16T08:03:59.475Z,1011.78
2016-11-16T08:04:59.416Z,1011.77
2016-11-16T08:05:59.342Z,1011.76
2016-11-16T08:06:59.283Z,1011.79
2016-11-16T08:07:59.235Z,1011.74
2016-11-16T08:08:59.169Z,1011.75
2016-11-16T08:09:59.104Z,1011.74
2016-11-16T08:10:59.032Z,1011.72
2016-11-16T08:11:58.963Z,1011.67
2016-11-16T08:12:58.905Z,1011.65
2016-11-16T08:13:58.859Z,1011.61
2016-11-16T08:14:58.772Z,1011.55
2016-11-16T08:15:58.723Z,1011.56
2016-11-16T08:16:58.649Z,1011.54
2016-11-16T08:17:58.599Z,1011.52
2016-11-16T08:18:58.520Z,1011.51
2016-11-16T08:19:58.466Z,1011.54
2016-11-16T08:20:58.394Z,1011.55
2016-11-16T08:21:58.341Z,1011.59
2016-11-16T08:22:58.283Z,1011.56
2016-11-16T08:23:58.218Z,1011.51
2016-11-16T08:24:58.148Z,1011.53
2016-11-16T08:25:58.081Z,1011.47
2016-11-16T08:26:58.018Z,1011.54
2016-11-16T08:27:57.955Z,1011.52
2016-11-16T08:28:57.927Z,1011.47
2016-11-16T08:29:57.850Z,1011.54
2016-11-16T08:30:57.818Z,1011.51
2016-11-16T08:31:57.723Z,1011.58
2016-11-16T08:32:57.644Z,1011.56
2016-11-16T08:33:57.593Z,1011.53
2016-11-16T08:34:57.528Z,1011.49
2016-11-16T08:35:57.450Z,1011.44
2016-11-16T08:36:57.456Z,1011.46
2016-11-16T08:37:57.348Z,1011.48
2016-11-16T08:38:57.295Z,1011.41
2016-11-16T08:39:57.210Z,1011.44
2016-11-16T08:40:57.140Z,1011.43
2016-11-16T08:41:57.073Z,1011.36
2016-11-16T08:42:57.017Z,1011.37
2016-11-16T08:43:56.949Z,1011.36
2016-11-16T08:44:56.884Z,1011.4
2016-11-16T08:45:56.821Z,1011.39
2016-11-16T08:46:56.769Z,1011.41
2016-11-16T08:47:56.700Z,1011.41
2016-11-16T08:48:56.638Z,1011.36
2016-11-16T08:49:56.574Z,1011.38
2016-11-16T08:50:56.526Z,1011.34
2016-11-16T08:51:56.474Z,1011.3
2016-11-16T08:52:56.384Z,1011.3
2016-11-16T08:53:56.332Z,1011.25
2016-11-16T08:54:56.331Z,1011.24
2016-11-16T08:55:56.212Z,1011.25
2016-11-16T08:56:56.129Z,1011.27
2016-11-16T08:57:56.065Z,1011.31
2016-11-16T08:58:56.005Z,1011.27
2016-11-16T08:59:55.947Z,1011.34
2016-11-16T09:00:55.891Z,1011.33
2016-11-16T09:01:55.809Z,1011.36
2016-11-16T09:02:55.766Z,1011.33
2016-11-16T09:03:55.697Z,1011.3
2016-11-16T09:04:55.627Z,1011.3
2016-11-16T09:05:55.559Z,1011.29
2016-11-16T09:06:55.531Z,1011.26
2016-11-16T09:07:55.744Z,1011.26
2016-11-16T09:08:55.396Z,1011.25
2016-11-16T09:09:55.415Z,1011.24
2016-11-16T09:10:55.324Z,1011.26
2016-11-16T09:11:55.209Z,1011.25
2016-11-16T09:12:55.129Z,1011.28
2016-11-16T09:13:55.087Z,1011.3
2016-11-16T09:14:54.989Z,1011.28
2016-11-16T09:15:55.048Z,1011.3
2016-11-16T09:16:55.038Z,1011.29
2016-11-16T09:17:54.820Z,1011.28
2016-11-16T09:18:54.783Z,1011.26
2016-11-16T09:19:54.714Z,1011.25
2016-11-16T09:20:54.653Z,1011.22
2016-11-16T09:21:54.632Z,1011.18
2016-11-16T09:22:54.524Z,1011.24
2016-11-16T09:23:54.538Z,1011.24
2016-11-16T09:24:54.397Z,1011.18
2016-11-16T09:25:54.335Z,1011.11
2016-11-16T09:26:54.246Z,1011.05
2016-11-16T09:27:54.193Z,1011.05
2016-11-16T09:28:54.354Z,1011.03
2016-11-16T09:29:54.091Z,1010.99
2016-11-16T09:30:54.114Z,1010.95
2016-11-16T09:31:54.010Z,1010.95
2016-11-16T09:32:53.885Z,1010.91
2016-11-16T09:33:53.812Z,1010.96
2016-11-16T09:34:53.784Z,1010.93
2016-11-16T09:35:53.708Z,1010.92
2016-11-16T09:36:53.663Z,1010.92
2016-11-16T09:37:53.595Z,1010.93
2016-11-16T09:38:53.515Z,1010.89
2016-11-16T09:39:53.421Z,1010.84
2016-11-16T09:40:53.352Z,1010.82
2016-11-16T09:41:53.313Z,1010.83
2016-11-16T09:42:53.240Z,1010.8
2016-11-16T09:43:53.163Z,1010.8
2016-11-16T09:44:53.143Z,1010.77
2016-11-16T09:45:53.077Z,1010.77
2016-11-16T09:46:53.001Z,1010.77
2016-11-16T09:47:52.946Z,1010.72
2016-11-16T09:48:52.903Z,1010.75
2016-11-16T09:49:52.814Z,1010.73
2016-11-16T09:50:52.776Z,1010.76
2016-11-16T09:51:52.686Z,1010.75
2016-11-16T09:52:52.629Z,1010.75
2016-11-16T09:53:52.560Z,1010.68
2016-11-16T09:54:52.501Z,1010.67
2016-11-16T09:55:52.449Z,1010.69
2016-11-16T09:56:52.438Z,1010.66
2016-11-16T09:57:52.291Z,1010.63
2016-11-16T09:58:52.246Z,1010.61
2016-11-16T09:59:52.170Z,1010.58
2016-11-16T10:00:52.116Z,1010.56
2016-11-16T10:01:52.070Z,1010.58
2016-11-16T10:02:52.002Z,1010.58
2016-11-16T10:03:51.917Z,1010.57
2016-11-16T10:04:51.868Z,1010.53
2016-11-16T10:05:51.818Z,1010.53
2016-11-16T10:06:51.797Z,1010.56
2016-11-16T10:07:51.686Z,1010.56
2016-11-16T10:08:51.618Z,1010.53
2016-11-16T10:09:51.559Z,1010.58
2016-11-16T10:10:51.468Z,1010.53
2016-11-16T10:11:51.434Z,1010.54
2016-11-16T10:12:51.367Z,1010.55
2016-11-16T10:13:51.298Z,1010.5
2016-11-16T10:14:51.223Z,1010.49
2016-11-16T10:15:51.152Z,1010.5
2016-11-16T10:16:51.163Z,1010.46
2016-11-16T10:17:51.033Z,1010.39
2016-11-16T10:18:50.964Z,1010.37
2016-11-16T10:19:50.895Z,1010.34
2016-11-16T10:20:50.845Z,1010.28
2016-11-16T10:21:50.774Z,1010.23
2016-11-16T10:22:50.708Z,1010.18
2016-11-16T10:23:50.683Z,1010.15
2016-11-16T10:24:50.623Z,1010.11
2016-11-16T10:25:50.591Z,1010.08
2016-11-16T10:26:50.453Z,1010.1
2016-11-16T10:27:50.448Z,1010.09
2016-11-16T10:28:50.374Z,1010.07
2016-11-16T10:29:50.283Z,1010.05
2016-11-16T10:30:50.202Z,1010.07
2016-11-16T10:31:50.168Z,1010.05
2016-11-16T10:32:50.113Z,1010.02
2016-11-16T10:33:50.052Z,1010
2016-11-16T10:34:49.973Z,1009.95
2016-11-16T10:35:50.014Z,1009.91
2016-11-16T10:36:49.852Z,1009.92
2016-11-16T10:37:49.770Z,1009.87
2016-11-16T10:38:49.700Z,1009.87
2016-11-16T10:39:49.645Z,1009.85
2016-11-16T10:40:49.585Z,1009.83
2016-11-16T10:41:49.537Z,1009.83
2016-11-16T10:42:49.446Z,1009.87
2016-11-16T10:43:49.440Z,1009.84
2016-11-16T10:44:49.377Z,1009.78
2016-11-16T10:45:49.270Z,1009.75
2016-11-16T10:46:49.243Z,1009.73
2016-11-16T10:47:49.136Z,1009.69
2016-11-16T10:48:49.082Z,1009.65
2016-11-16T10:49:49.032Z,1009.62
2016-11-16T10:50:48.959Z,1009.57
2016-11-16T10:51:48.895Z,1009.57
2016-11-16T10:52:48.829Z,1009.56
2016-11-16T10:53:48.768Z,1009.49
2016-11-16T10:54:48.705Z,1009.49
2016-11-16T10:55:48.641Z,1009.49
2016-11-16T10:56:48.580Z,1009.44
2016-11-16T10:57:48.519Z,1009.42
2016-11-16T10:58:48.452Z,1009.42
2016-11-16T10:59:48.390Z,1009.37
2016-11-16T11:00:48.326Z,1009.35
2016-11-16T11:01:48.264Z,1009.35
2016-11-16T11:02:48.198Z,1009.29
2016-11-16T11:03:48.137Z,1009.24
2016-11-16T11:04:48.083Z,1009.21
2016-11-16T11:05:48.010Z,1009.11
2016-11-16T11:06:47.948Z,1009.15
2016-11-16T11:07:47.885Z,1009.16
2016-11-16T11:08:47.823Z,1009.18
2016-11-16T11:09:47.759Z,1009.21
2016-11-16T11:10:47.697Z,1009.24
2016-11-16T11:11:47.634Z,1009.25
2016-11-16T11:12:47.571Z,1009.35
2016-11-16T11:13:47.507Z,1009.38
2016-11-16T11:14:47.488Z,1009.41
2016-11-16T11:15:47.380Z,1009.3
2016-11-16T11:16:47.330Z,1009.27
2016-11-16T11:17:47.255Z,1009.26
2016-11-16T11:18:47.195Z,1009.22
2016-11-16T11:19:47.138Z,1009.21
2016-11-16T11:20:47.071Z,1009.24
2016-11-16T11:21:47.003Z,1009.23
2016-11-16T11:23:41.031Z,1009.17
2016-11-16T11:24:40.957Z,1009.19
2016-11-16T13:13:20.005Z,1006.98
2016-11-16T13:14:19.829Z,1006.97
2016-11-16T13:15:19.767Z,1006.93
2016-11-16T13:16:19.703Z,1006.87
2016-11-16T13:17:19.639Z,1006.83
2016-11-16T13:18:19.574Z,1006.79
2016-11-16T13:19:19.513Z,1006.74
2016-11-16T13:20:19.449Z,1006.78
2016-11-16T13:21:19.450Z,1006.66
2016-11-16T13:22:19.387Z,1006.59
2016-11-16T13:23:19.259Z,1006.57
2016-11-16T13:24:19.197Z,1006.58
2016-11-16T13:25:19.137Z,1006.51
2016-11-16T13:26:19.075Z,1006.49
2016-11-16T13:27:19.009Z,1006.48
2016-11-16T13:28:18.945Z,1006.39
2016-11-16T13:29:18.884Z,1006.36
2016-11-16T13:30:18.821Z,1006.28
2016-11-16T13:31:18.758Z,1006.29
2016-11-16T13:32:18.699Z,1006.23
2016-11-16T13:33:18.633Z,1006.18
2016-11-16T13:34:18.573Z,1006.12
2016-11-16T13:35:18.505Z,1006.09
2016-11-16T13:36:18.445Z,1006.08
2016-11-16T13:37:18.381Z,1006.03
2016-11-16T13:38:18.317Z,1006
2016-11-16T13:39:18.254Z,1006.03
2016-11-16T13:40:18.192Z,1006.06
2016-11-16T13:41:18.130Z,1006.09
2016-11-16T13:42:18.068Z,1006.16
2016-11-16T13:43:18.006Z,1006.18
2016-11-16T13:44:17.942Z,1006.19
2016-11-16T13:45:17.880Z,1006.22
2016-11-16T13:46:17.818Z,1006.36
2016-11-16T13:47:17.757Z,1006.4
2016-11-16T13:48:17.692Z,1006.46
2016-11-16T13:49:17.629Z,1006.48
2016-11-16T13:50:17.568Z,1006.56
2016-11-16T13:51:17.508Z,1006.51
2016-11-16T13:52:17.444Z,1006.52
2016-11-16T13:53:17.392Z,1006.47
2016-11-16T13:54:17.319Z,1006.39
2016-11-16T13:55:17.259Z,1006.4
2016-11-16T13:56:17.193Z,1006.43